Time;durP1;ratioP1;P1;durP2;ratioP2;P2;SDS_P1;SDS_P2;PMS_P1;PMS_P2;Temp;Humidity;BMP_temperature;BMP_pressure;BME280_temperature;BME280_humidity;BME280_pressure;Samples;Min_cycle;Max_cycle;Signal;HPM_P1;HPM_P2
2022/07/29 00:00:18;;;;;;;2.30;1.80;;;;;;;21.43;63.16;99604.80;25084;1315;3027177;-62
2022/07/29 00:02:48;;;;;;;2.60;1.50;;;;;;;21.23;63.96;99608.34;25096;1314;3026695;-62
2022/07/29 00:05:17;;;;;;;5.70;1.70;;;;;;;21.21;63.90;99614.54;25107;1316;3051044;-62
2022/07/29 00:07:46;;;;;;;4.10;1.80;;;;;;;21.18;63.90;99613.15;25071;1316;3026512;-61
2022/07/29 00:10:16;;;;;;;1.60;1.50;;;;;;;21.18;63.72;99611.38;25077;1316;3028098;-61
2022/07/29 00:12:45;;;;;;;2.80;1.70;;;;;;;21.15;63.89;99611.47;25099;1315;3026588;-64
2022/07/29 00:15:14;;;;;;;3.20;1.70;;;;;;;21.11;63.98;99607.20;25047;1316;3054638;-62
2022/07/29 00:17:43;;;;;;;6.40;1.80;;;;;;;20.97;64.44;99613.19;25060;1316;3026828;-63
2022/07/29 00:20:12;;;;;;;3.50;1.60;;;;;;;20.99;64.42;99609.21;25148;1316;3048752;-65
2022/07/29 00:22:53;;;;;;;7.00;2.00;;;;;;;20.95;64.70;99606.55;25070;1314;3054863;-63
2022/07/29 00:25:22;;;;;;;4.70;1.30;;;;;;;20.96;64.57;99612.00;25111;1316;3026461;-62
2022/07/29 00:27:51;;;;;;;2.00;1.20;;;;;;;21.61;63.11;99614.17;25068;1314;3048833;-61
2022/07/29 00:30:20;;;;;;;3.50;1.30;;;;;;;22.06;61.36;99616.11;25081;1316;3026449;-62
2022/07/29 00:32:49;;;;;;;3.60;1.60;;;;;;;22.12;60.80;99616.35;25055;1316;3026905;-62
2022/07/29 00:38:06;;;;;;;4.80;1.60;;;;;;;21.79;61.24;99615.16;25108;1316;3053682;-63
2022/07/29 00:40:36;;;;;;;2.10;1.50;;;;;;;21.58;61.77;99620.55;25058;1315;3027373;-61
2022/07/29 00:43:04;;;;;;;4.20;1.70;;;;;;;21.33;62.65;99625.98;25126;1316;3026061;-63
2022/07/29 00:45:35;;;;;;;2.50;1.60;;;;;;;21.18;63.25;99623.41;25071;1316;3054661;-63
2022/07/29 00:48:04;;;;;;;3.40;1.80;;;;;;;21.10;63.47;99623.52;25069;1316;3026878;-62
2022/07/29 00:50:34;;;;;;;7.80;1.80;;;;;;;20.89;64.33;99623.19;25094;1316;3048086;-62
2022/07/29 00:53:04;;;;;;;5.60;1.60;;;;;;;20.98;64.09;99621.21;25048;1313;3028272;-60
2022/07/29 00:55:34;;;;;;;4.00;1.70;;;;;;;20.93;64.13;99621.95;25069;1316;3027240;-62
2022/07/29 00:58:03;;;;;;;2.50;1.70;;;;;;;20.85;64.42;99626.03;25052;1315;3026813;-62
2022/07/29 01:00:32;;;;;;;4.60;1.80;;;;;;;20.91;64.08;99624.90;25184;1315;3026537;-61
2022/07/29 01:03:01;;;;;;;2.70;1.80;;;;;;;20.89;64.27;99622.13;25040;1315;3052399;-62
2022/07/29 01:05:30;;;;;;;4.40;1.70;;;;;;;20.80;64.49;99622.63;25159;1316;3026827;-62
2022/07/29 01:08:01;;;;;;;3.40;1.60;;;;;;;20.89;64.21;99621.77;25040;1316;3051306;-62
2022/07/29 01:10:30;;;;;;;6.10;1.70;;;;;;;20.92;63.99;99618.05;25095;1315;3027709;-60
2022/07/29 01:12:59;;;;;;;2.80;1.20;;;;;;;20.95;63.99;99625.41;25099;1314;3026817;-64
2022/07/29 01:15:30;;;;;;;7.20;1.80;;;;;;;21.43;62.73;99617.49;25137;1316;3053228;-62
2022/07/29 01:18:14;;;;;;;5.30;1.40;;;;;;;21.78;61.57;99614.73;25079;1315;3028092;-61
2022/07/29 01:21:05;;;;;;;3.10;1.50;;;;;;;21.93;60.44;99612.79;25036;1315;3051346;-62
2022/07/29 01:23:44;;;;;;;1.70;1.40;;;;;;;21.64;61.33;99619.55;25078;1314;3054433;-62
2022/07/29 01:26:26;;;;;;;4.30;1.50;;;;;;;21.41;62.21;99621.77;25085;1316;3054882;-62
2022/07/29 01:29:07;;;;;;;3.30;1.60;;;;;;;21.26;62.62;99624.55;25046;1316;3058701;-63
2022/07/29 01:31:42;;;;;;;5.40;1.80;;;;;;;21.11;63.33;99624.02;25095;1316;3052207;-62
2022/07/29 01:34:17;;;;;;;1.90;1.70;;;;;;;20.99;63.77;99630.20;25043;1315;3053268;-62
2022/07/29 01:36:54;;;;;;;3.10;1.80;;;;;;;20.84;64.59;99622.98;25104;1316;3051565;-64
2022/07/29 01:39:27;;;;;;;3.60;1.90;;;;;;;20.75;65.12;99620.34;25086;1314;3068542;-62
2022/07/29 01:42:31;;;;;;;2.90;1.50;;;;;;;20.52;66.10;99620.61;25107;1315;3028646;-62
2022/07/29 01:45:17;;;;;;;3.30;1.80;;;;;;;20.40;66.80;99622.13;25090;1315;3053032;-62
2022/07/29 01:47:52;;;;;;;4.70;1.30;;;;;;;20.34;67.24;99622.08;25074;1316;3055211;-61
2022/07/29 01:50:26;;;;;;;4.90;1.60;;;;;;;20.88;65.21;99621.67;25057;1316;3059398;-64
2022/07/29 01:53:03;;;;;;;5.20;1.50;;;;;;;21.16;64.29;99616.19;25087;1316;3026711;-62
2022/07/29 01:55:36;;;;;;;2.90;1.70;;;;;;;21.03;64.46;99617.64;25077;1316;3057039;-64
2022/07/29 01:58:06;;;;;;;5.40;2.90;;;;;;;20.79;65.11;99620.08;25036;1315;3026544;-63
2022/07/29 02:00:35;;;;;;;4.80;1.40;;;;;;;20.68;65.61;99617.94;25071;1316;3026607;-63
2022/07/29 02:03:07;;;;;;;6.10;1.80;;;;;;;20.70;65.43;99622.27;25110;1316;3026640;-63
2022/07/29 02:05:38;;;;;;;8.40;1.70;;;;;;;20.50;66.30;99619.09;25093;1315;3028424;-61
2022/07/29 02:08:07;;;;;;;2.70;1.60;;;;;;;20.40;66.47;99627.52;25104;1315;3026624;-62
2022/07/29 02:10:36;;;;;;;5.10;2.00;;;;;;;20.27;66.89;99627.70;25039;1316;3026895;-62
2022/07/29 02:13:05;;;;;;;4.90;1.30;;;;;;;20.21;67.43;99626.74;24998;1318;3054533;-62
2022/07/29 02:15:36;;;;;;;5.60;1.40;;;;;;;20.73;65.87;99622.85;25092;1315;3027446;-62
2022/07/29 02:18:10;;;;;;;7.70;1.60;;;;;;;21.18;64.44;99625.89;25077;1316;3026226;-63
2022/07/29 02:20:39;;;;;;;4.00;1.90;;;;;;;21.04;64.37;99627.23;25031;1316;3026185;-62
2022/07/29 02:23:11;;;;;;;3.70;1.70;;;;;;;20.85;64.95;99626.66;25092;1316;3026792;-62
2022/07/29 02:25:41;;;;;;;2.40;1.90;;;;;;;20.63;65.56;99623.80;25059;1316;3056386;-61
2022/07/29 02:28:11;;;;;;;4.20;1.80;;;;;;;20.48;66.08;99628.27;25133;1315;3026705;-61
2022/07/29 02:30:42;;;;;;;2.50;1.90;;;;;;;20.33;66.79;99631.94;25067;1316;3026777;-62
2022/07/29 02:33:13;;;;;;;2.30;1.70;;;;;;;20.21;67.18;99630.95;25125;1314;3026843;-62
2022/07/29 02:35:43;;;;;;;4.20;2.20;;;;;;;20.14;67.58;99631.14;25113;1316;3027383;-62
2022/07/29 02:41:11;;;;;;;5.60;2.40;;;;;;;20.60;66.56;99629.58;25135;1316;3054601;-61
2022/07/29 02:43:41;;;;;;;8.50;2.10;;;;;;;21.01;64.82;99626.83;25078;1316;3053697;-63
2022/07/29 02:46:13;;;;;;;6.00;2.00;;;;;;;20.84;65.07;99629.00;25089;1316;3026640;-61
2022/07/29 02:49:04;;;;;;;3.60;1.60;;;;;;;20.73;65.31;99634.40;25088;1315;3052509;-62
2022/07/29 02:51:57;;;;;;;9.40;1.70;;;;;;;20.53;66.00;99638.83;25075;1316;3054864;-62
2022/07/29 02:54:29;;;;;;;2.80;1.60;;;;;;;20.48;66.19;99636.00;25132;1316;3057396;-63
2022/07/29 02:57:00;;;;;;;6.10;2.00;;;;;;;20.30;66.62;99641.98;25104;1315;3026841;-62
2022/07/29 02:59:30;;;;;;;7.50;1.70;;;;;;;20.24;66.90;99647.05;25092;1313;3027193;-62
2022/07/29 03:02:00;;;;;;;4.70;1.80;;;;;;;20.25;66.73;99649.03;25055;1315;3026927;-61
2022/07/29 03:04:29;;;;;;;3.40;1.20;;;;;;;20.27;66.70;99649.05;25086;1316;3028220;-62
2022/07/29 03:07:00;;;;;;;2.30;1.50;;;;;;;20.80;65.25;99656.63;25028;1316;3026263;-63
2022/07/29 03:09:29;;;;;;;4.00;1.50;;;;;;;21.10;64.14;99654.74;25017;1315;3026285;-61
2022/07/29 03:11:59;;;;;;;4.10;1.70;;;;;;;21.39;63.22;99647.64;25081;1316;3026480;-61
2022/07/29 03:14:29;;;;;;;3.60;1.90;;;;;;;21.37;63.09;99656.55;25002;1315;3026865;-61
2022/07/29 03:16:58;;;;;;;3.20;1.60;;;;;;;21.26;63.43;99659.70;25084;1315;3026569;-62
2022/07/29 03:19:28;;;;;;;2.90;1.80;;;;;;;21.19;63.50;99660.75;24999;1315;3054468;-61
2022/07/29 03:21:57;;;;;;;5.60;2.10;;;;;;;21.05;64.00;99665.27;25036;1316;3026319;-62
2022/07/29 03:24:32;;;;;;;2.40;1.80;;;;;;;20.89;64.63;99666.98;25057;1316;3026261;-63
2022/07/29 03:27:01;;;;;;;;;;;;;;;20.76;65.02;99664.50;25041;1315;3053038;-62
2022/07/29 03:29:31;;;;;;;4.10;1.80;;;;;;;20.73;65.23;99662.12;25101;1316;3026370;-63
2022/07/29 03:32:02;;;;;;;5.40;1.90;;;;;;;20.82;64.63;99663.74;25080;1315;3026775;-61
2022/07/29 03:34:31;;;;;;;4.90;2.00;;;;;;;20.78;65.09;99667.92;25041;1316;3053662;-64
2022/07/29 03:37:00;;;;;;;4.20;1.30;;;;;;;20.64;65.73;99669.28;25095;1315;3026245;-63
2022/07/29 03:39:33;;;;;;;2.80;1.80;;;;;;;21.13;64.56;99666.38;25099;1315;3052105;-61
2022/07/29 03:42:02;;;;;;;2.10;1.50;;;;;;;21.55;62.95;99661.73;25074;1316;3026544;-62
2022/07/29 03:44:32;;;;;;;9.00;2.40;;;;;;;21.51;62.85;99660.88;24997;1315;3029706;-61
2022/07/29 03:47:03;;;;;;;10.20;2.00;;;;;;;21.32;63.06;99656.41;25041;1316;3029559;-62
2022/07/29 03:49:32;;;;;;;5.30;2.10;;;;;;;21.25;63.55;99658.14;25106;1316;3027024;-62
2022/07/29 03:52:02;;;;;;;5.40;2.00;;;;;;;21.22;63.45;99658.86;25035;1315;3028841;-64
2022/07/29 03:54:32;;;;;;;7.90;2.30;;;;;;;21.15;63.72;99659.19;25040;1315;3070055;-61
2022/07/29 03:57:03;;;;;;;8.50;2.40;;;;;;;20.98;64.51;99657.30;25066;1315;3026841;-62
2022/07/29 03:59:33;;;;;;;6.70;2.50;;;;;;;21.05;64.03;99658.29;25142;1315;3050252;-62
2022/07/29 04:02:03;;;;;;;7.40;2.30;;;;;;;21.06;63.86;99663.48;25121;1315;3027286;-63
2022/07/29 04:04:34;;;;;;;8.40;2.70;;;;;;;21.06;63.87;99665.61;25101;1315;3026363;-62
2022/07/29 04:07:03;;;;;;;7.40;2.30;;;;;;;21.04;63.84;99665.29;25085;1316;3026630;-62
2022/07/29 04:09:32;;;;;;;5.60;2.60;;;;;;;20.99;64.23;99667.39;25099;1315;3026508;-63
2022/07/29 04:12:01;;;;;;;4.80;2.40;;;;;;;20.94;63.89;99667.18;25033;1314;3050566;-62
2022/07/29 04:14:31;;;;;;;9.30;2.60;;;;;;;20.97;63.76;99670.24;25100;1316;3026507;-63
2022/07/29 04:17:02;;;;;;;4.70;2.20;;;;;;;21.01;63.65;99673.42;25056;1316;3070976;-63
2022/07/29 04:19:31;;;;;;;6.80;2.40;;;;;;;21.05;63.63;99674.67;25066;1315;3028537;-61
2022/07/29 04:22:00;;;;;;;3.10;1.90;;;;;;;20.98;64.08;99682.84;25141;1316;3026733;-62
2022/07/29 04:24:29;;;;;;;5.20;2.40;;;;;;;20.95;64.15;99686.35;25058;1316;3026426;-62
2022/07/29 04:26:58;;;;;;;5.70;2.50;;;;;;;20.95;63.73;99682.21;25116;1313;3028755;-62
2022/07/29 04:29:28;;;;;;;7.50;2.50;;;;;;;20.92;63.94;99681.62;25105;1316;3054077;-62
2022/07/29 04:31:57;;;;;;;9.60;2.50;;;;;;;20.93;63.88;99680.10;25078;1314;3026940;-61
2022/07/29 04:34:27;;;;;;;5.20;2.30;;;;;;;20.94;63.12;99681.64;25063;1315;3050624;-62
2022/07/29 04:36:56;;;;;;;5.80;2.30;;;;;;;20.99;63.34;99686.80;25132;1315;3026616;-62
2022/07/29 04:39:26;;;;;;;7.20;2.30;;;;;;;21.03;63.20;99680.85;25059;1316;3071665;-63
2022/07/29 04:41:58;;;;;;;9.00;2.70;;;;;;;21.08;62.88;99679.28;25166;1314;3026699;-62
2022/07/29 04:44:28;;;;;;;5.90;2.90;;;;;;;21.16;62.62;99679.36;25101;1315;3026854;-68
2022/07/29 04:46:57;;;;;;;5.10;2.10;;;;;;;21.24;62.47;99675.40;25074;1313;3068658;-63
2022/07/29 04:49:27;;;;;;;6.70;2.30;;;;;;;21.32;61.81;99678.46;25105;1316;3026905;-62
2022/07/29 04:51:56;;;;;;;4.20;2.60;;;;;;;21.30;61.69;99674.91;25129;1313;3026598;-62
2022/07/29 04:54:26;;;;;;;4.50;2.50;;;;;;;21.31;61.49;99675.41;25081;1316;3070551;-63
2022/07/29 04:56:55;;;;;;;9.30;2.10;;;;;;;21.34;61.24;99671.16;25037;1316;3026330;-65
2022/07/29 04:59:26;;;;;;;7.60;3.00;;;;;;;21.41;61.01;99673.34;25101;1316;3026532;-62
2022/07/29 05:01:55;;;;;;;9.10;2.60;;;;;;;21.41;60.79;99675.46;25035;1313;3068558;-63
2022/07/29 05:04:26;;;;;;;8.90;3.20;;;;;;;21.49;60.68;99675.49;25103;1313;3029047;-64
2022/07/29 05:06:55;;;;;;;6.00;2.90;;;;;;;21.54;60.77;99677.00;25061;1313;3027505;-62
2022/07/29 05:09:24;;;;;;;6.60;2.50;;;;;;;21.59;60.65;99677.14;25116;1313;3026674;-61
2022/07/29 05:11:53;;;;;;;7.90;2.30;;;;;;;21.70;60.54;99675.69;25051;1315;3051221;-63
2022/07/29 05:14:23;;;;;;;7.30;2.80;;;;;;;21.77;60.28;99676.23;25029;1314;3026007;-64
2022/07/29 05:16:56;;;;;;;7.30;3.00;;;;;;;21.78;60.22;99678.23;25084;1313;3026614;-63
2022/07/29 05:19:39;;;;;;;4.20;2.90;;;;;;;21.89;59.64;99681.36;25059;1314;3052003;-62
2022/07/29 05:22:11;;;;;;;6.20;3.60;;;;;;;21.95;59.82;99680.67;25113;1313;3026390;-62
2022/07/29 05:24:41;;;;;;;7.90;3.50;;;;;;;21.97;59.54;99685.52;25139;1315;3026602;-64
2022/07/29 05:27:10;;;;;;;5.90;3.50;;;;;;;22.01;59.64;99690.15;25142;1316;3028166;-62
2022/07/29 05:29:39;;;;;;;13.40;3.50;;;;;;;22.07;59.77;99692.29;25087;1315;3054016;-64
2022/07/29 05:32:09;;;;;;;10.40;3.90;;;;;;;22.11;59.40;99690.86;25092;1315;3026085;-63
2022/07/29 05:34:38;;;;;;;7.70;3.60;;;;;;;22.16;58.96;99692.84;25042;1316;3026854;-63
2022/07/29 05:37:07;;;;;;;11.10;3.40;;;;;;;22.22;59.08;99687.14;25140;1315;3054125;-63
2022/07/29 05:39:36;;;;;;;10.20;3.50;;;;;;;22.31;58.64;99686.77;25141;1315;3026962;-62
2022/07/29 05:42:09;;;;;;;6.40;3.50;;;;;;;22.31;58.58;99688.02;25085;1316;3052525;-62
2022/07/29 05:44:39;;;;;;;;;;;;;;;22.34;58.36;99683.98;25115;1316;3052816;-64
2022/07/29 05:47:08;;;;;;;7.80;3.20;;;;;;;22.42;58.68;99686.17;25086;1315;3028619;-62
2022/07/29 05:49:37;;;;;;;5.50;3.20;;;;;;;22.49;58.78;99685.29;25048;1313;3026196;-63
2022/07/29 05:52:08;;;;;;;11.00;3.70;;;;;;;22.56;58.34;99680.23;25111;1316;3052850;-63
2022/07/29 05:54:37;;;;;;;10.30;3.10;;;;;;;22.56;57.72;99677.72;25074;1316;3026802;-63
2022/07/29 05:57:06;;;;;;;12.20;3.00;;;;;;;22.52;58.02;99678.66;25122;1315;3026796;-64
2022/07/29 05:59:36;;;;;;;10.70;3.70;;;;;;;22.61;57.75;99679.48;25059;1315;3054044;-64
2022/07/29 06:02:07;;;;;;;9.00;3.80;;;;;;;22.72;57.77;99676.84;25074;1315;3026638;-62
2022/07/29 06:04:36;;;;;;;6.10;3.50;;;;;;;22.80;57.12;99678.48;25127;1315;3026917;-63
2022/07/29 06:07:06;;;;;;;10.40;2.90;;;;;;;22.91;56.06;99671.75;25078;1316;3054164;-63
2022/07/29 06:09:44;;;;;;;12.40;3.50;;;;;;;23.05;55.84;99668.42;25142;1315;3054710;-62
2022/07/29 06:12:14;;;;;;;9.80;3.20;;;;;;;23.13;55.43;99671.55;25077;1315;3026401;-62
2022/07/29 06:14:43;;;;;;;15.90;3.20;;;;;;;23.19;54.99;99672.39;25099;1314;3055150;-63
2022/07/29 06:17:12;;;;;;;8.70;3.20;;;;;;;23.23;54.18;99674.05;25141;1315;3026952;-62
2022/07/29 06:19:41;;;;;;;6.20;3.20;;;;;;;23.30;53.45;99668.98;25127;1316;3047820;-62
2022/07/29 06:22:10;;;;;;;8.10;3.70;;;;;;;23.28;53.13;99668.52;25091;1315;3030689;-62
2022/07/29 06:24:43;;;;;;;17.00;4.10;;;;;;;23.48;52.59;99669.73;25051;1316;3070079;-64
2022/07/29 06:27:13;;;;;;;;;;;;;;;23.57;52.02;99672.00;25057;1315;3050958;-63
2022/07/29 06:29:44;;;;;;;5.50;2.60;;;;;;;23.58;51.92;99668.94;25051;1314;3026630;-65
2022/07/29 06:32:13;;;;;;;5.30;2.90;;;;;;;23.68;51.53;99669.41;25092;1315;3026942;-62
2022/07/29 06:34:42;;;;;;;4.60;2.50;;;;;;;23.73;51.60;99666.73;25059;1316;3051163;-64
2022/07/29 06:37:11;;;;;;;4.20;2.80;;;;;;;23.87;51.50;99664.98;25090;1315;3026787;-64
2022/07/29 06:39:40;;;;;;;5.40;3.00;;;;;;;23.94;51.08;99667.71;25139;1316;3070881;-64
2022/07/29 06:42:09;;;;;;;5.50;3.20;;;;;;;24.06;50.77;99666.38;25093;1316;3026525;-62
2022/07/29 06:44:39;;;;;;;3.30;2.10;;;;;;;24.14;50.64;99670.06;25050;1315;3054103;-64
2022/07/29 06:47:08;;;;;;;11.90;2.90;;;;;;;24.21;50.14;99673.41;25138;1316;3029449;-64
2022/07/29 06:49:37;;;;;;;5.60;2.60;;;;;;;24.29;49.65;99669.51;25044;1316;3055449;-64
2022/07/29 06:52:06;;;;;;;6.70;3.10;;;;;;;24.36;49.49;99664.56;25076;1315;3026833;-64
2022/07/29 06:54:35;;;;;;;7.50;2.20;;;;;;;24.43;49.45;99663.94;25066;1314;3052297;-64
2022/07/29 06:57:04;;;;;;;7.30;2.70;;;;;;;24.47;49.32;99658.61;25126;1315;3026770;-62
2022/07/29 06:59:33;;;;;;;8.30;2.70;;;;;;;24.54;49.36;99661.55;25046;1315;3057015;-64
2022/07/29 07:02:02;;;;;;;7.70;2.70;;;;;;;24.66;48.32;99662.52;25093;1314;3026442;-63
2022/07/29 07:04:32;;;;;;;6.50;2.00;;;;;;;24.75;47.90;99662.77;25071;1316;3054858;-63
2022/07/29 07:07:02;;;;;;;4.90;2.10;;;;;;;24.79;47.94;99663.90;25079;1316;3026115;-66
2022/07/29 07:09:32;;;;;;;4.80;2.40;;;;;;;24.93;48.19;99660.86;25080;1316;3026559;-63
2022/07/29 07:12:04;;;;;;;10.80;2.60;;;;;;;25.00;47.74;99655.55;25073;1315;3027041;-60
2022/07/29 07:14:40;;;;;;;3.90;2.50;;;;;;;25.11;47.81;99655.52;25126;1314;3053062;-64
2022/07/29 07:17:09;;;;;;;6.70;2.10;;;;;;;25.19;47.58;99649.52;25031;1316;3029933;-64
2022/07/29 07:19:42;;;;;;;8.50;3.00;;;;;;;25.23;47.21;99647.90;25126;1316;3028665;-64
2022/07/29 07:22:12;;;;;;;11.50;3.10;;;;;;;25.24;46.68;99652.14;25046;1316;3027004;-66
2022/07/29 07:24:40;;;;;;;8.20;2.60;;;;;;;25.31;46.44;99655.58;25125;1315;3026280;-64
2022/07/29 07:27:10;;;;;;;6.30;2.60;;;;;;;25.39;46.44;99659.31;25129;1316;3048714;-63
2022/07/29 07:29:40;;;;;;;16.20;2.50;;;;;;;25.47;46.47;99661.66;25088;1315;3026250;-65
2022/07/29 07:32:10;;;;;;;6.60;1.90;;;;;;;25.50;46.41;99660.05;25132;1316;3070488;-64
2022/07/29 07:34:39;;;;;;;3.10;1.70;;;;;;;25.52;45.90;99660.13;25059;1316;3026195;-67
2022/07/29 07:37:10;;;;;;;5.20;1.80;;;;;;;25.47;44.85;99660.30;25136;1316;3053819;-62
2022/07/29 07:39:43;;;;;;;7.10;2.00;;;;;;;25.48;44.94;99661.88;25072;1315;3028273;-65
2022/07/29 07:42:12;;;;;;;3.70;1.80;;;;;;;25.48;44.27;99659.02;25092;1316;3028697;-63
2022/07/29 07:44:43;;;;;;;6.80;2.00;;;;;;;25.61;44.44;99654.77;25127;1315;3052228;-64
2022/07/29 07:47:12;;;;;;;6.60;1.80;;;;;;;25.74;43.80;99653.37;25075;1315;3026283;-65
2022/07/29 07:49:43;;;;;;;5.70;2.00;;;;;;;25.83;43.44;99658.36;25055;1314;3028226;-62
2022/07/29 07:52:13;;;;;;;4.70;1.70;;;;;;;25.97;43.19;99655.30;25094;1313;3026528;-63
2022/07/29 07:54:44;;;;;;;4.80;1.70;;;;;;;25.94;41.82;99657.05;25151;1316;3070227;-61
2022/07/29 07:57:15;;;;;;;2.70;1.70;;;;;;;25.90;41.06;99659.85;25089;1315;3027042;-65
2022/07/29 07:59:44;;;;;;;3.50;1.70;;;;;;;25.82;41.10;99661.88;25131;1315;3053568;-64
2022/07/29 08:02:17;;;;;;;3.30;1.60;;;;;;;25.88;40.72;99655.37;25043;1315;3071035;-64
2022/07/29 08:04:48;;;;;;;4.40;1.90;;;;;;;25.90;40.27;99657.50;25071;1315;3028794;-63
2022/07/29 08:07:17;;;;;;;7.40;1.50;;;;;;;26.00;40.27;99661.48;25074;1315;3026842;-64
2022/07/29 08:09:49;;;;;;;8.40;1.40;;;;;;;25.84;39.23;99660.49;25049;1315;3071067;-64
2022/07/29 08:12:18;;;;;;;5.00;1.60;;;;;;;25.83;39.27;99657.87;25089;1316;3026839;-62
2022/07/29 08:14:50;;;;;;;5.80;1.40;;;;;;;25.92;39.31;99664.44;24644;1316;3671942;-63
2022/07/29 08:17:19;;;;;;;3.30;1.30;;;;;;;25.94;39.01;99662.44;25052;1316;3026259;-64
2022/07/29 08:19:49;;;;;;;5.70;1.50;;;;;;;25.99;38.71;99658.77;25116;1316;3054893;-65
2022/07/29 08:22:18;;;;;;;4.40;1.10;;;;;;;26.09;38.44;99657.38;25175;1316;3028420;-63
2022/07/29 08:24:55;;;;;;;6.90;1.50;;;;;;;26.01;38.63;99664.90;25008;1315;3026332;-63
2022/07/29 08:27:26;;;;;;;3.80;1.30;;;;;;;26.07;38.95;99662.60;25096;1313;3026548;-63
2022/07/29 08:29:55;;;;;;;2.80;1.30;;;;;;;26.31;38.78;99664.13;25131;1316;3027532;-63
2022/07/29 08:32:24;;;;;;;3.00;1.20;;;;;;;26.35;38.10;99664.95;25120;1316;3026813;-63
2022/07/29 08:34:54;;;;;;;2.50;1.30;;;;;;;26.35;37.38;99667.08;25058;1315;3028035;-64
2022/07/29 08:37:24;;;;;;;3.70;1.10;;;;;;;26.23;36.13;99670.75;25101;1316;3052032;-63
2022/07/29 08:39:54;;;;;;;5.20;1.40;;;;;;;26.21;37.04;99668.66;25067;1316;3027496;-64
2022/07/29 08:42:24;;;;;;;3.00;1.10;;;;;;;26.31;37.51;99670.39;25149;1316;3027352;-62
2022/07/29 08:44:56;;;;;;;2.20;1.40;;;;;;;26.55;37.40;99672.02;25074;1316;3027988;-66
2022/07/29 08:47:26;;;;;;;4.20;1.60;;;;;;;26.71;35.96;99670.91;25032;1315;3028161;-63
2022/07/29 08:49:55;;;;;;;3.50;1.60;;;;;;;26.82;36.50;99666.41;25088;1316;3026743;-64
2022/07/29 08:52:25;;;;;;;3.10;1.20;;;;;;;27.04;36.70;99670.00;25021;1315;3026339;-66
2022/07/29 08:54:57;;;;;;;4.60;1.80;;;;;;;27.21;36.52;99667.16;25045;1316;3026272;-64
2022/07/29 08:57:27;;;;;;;3.80;1.40;;;;;;;27.25;36.13;99666.49;25071;1316;3027400;-66
2022/07/29 08:59:56;;;;;;;4.30;1.50;;;;;;;27.27;35.79;99664.31;25165;1315;3026269;-63
2022/07/29 09:02:25;;;;;;;5.00;1.40;;;;;;;27.31;35.53;99666.33;25080;1315;3026801;-63
2022/07/29 09:04:55;;;;;;;4.70;1.50;;;;;;;27.34;35.62;99666.19;25078;1316;3027280;-63
2022/07/29 09:07:29;;;;;;;4.10;1.50;;;;;;;27.25;35.44;99666.41;25089;1315;3054796;-62
2022/07/29 09:09:58;;;;;;;7.10;1.30;;;;;;;27.43;35.29;99663.39;25002;1315;3026448;-63
2022/07/29 09:12:29;;;;;;;2.90;1.40;;;;;;;27.55;34.84;99663.66;25125;1316;3054095;-64
2022/07/29 09:15:03;;;;;;;3.40;1.40;;;;;;;27.20;35.32;99662.11;25036;1316;3053748;-63
2022/07/29 09:17:41;;;;;;;2.20;1.30;;;;;;;27.16;36.00;99660.45;25138;1316;3026572;-63
2022/07/29 09:20:12;;;;;;;6.30;1.50;;;;;;;27.52;35.69;99655.77;25133;1316;3049326;-63
2022/07/29 09:22:46;;;;;;;;;;;;;;;27.73;35.45;99655.99;25121;1313;3052682;-63
2022/07/29 09:25:35;;;;;;;12.90;1.60;;;;;;;27.90;34.87;99654.27;25091;1313;3029583;-64
2022/07/29 09:28:12;;;;;;;6.90;1.60;;;;;;;28.05;34.29;99654.19;25103;1316;3069597;-62
2022/07/29 09:30:55;;;;;;;4.30;1.20;;;;;;;27.97;34.21;99657.10;25111;1314;3048956;-63
2022/07/29 09:33:35;;;;;;;6.60;1.50;;;;;;;27.87;34.69;99651.86;25063;1315;3054983;-63
2022/07/29 09:36:05;;;;;;;5.30;1.40;;;;;;;28.01;34.82;99652.84;25146;1315;3052291;-66
2022/07/29 09:38:36;;;;;;;7.10;1.50;;;;;;;28.01;34.50;99650.88;25217;1316;3026536;-61
2022/07/29 09:41:07;;;;;;;5.50;1.30;;;;;;;27.98;34.05;99648.88;25128;1315;3027380;-67
2022/07/29 09:43:37;;;;;;;6.00;1.30;;;;;;;28.13;34.04;99652.48;25382;1316;3026854;-65
2022/07/29 09:46:13;;;;;;;6.60;1.50;;;;;;;28.06;33.53;99651.08;25155;1316;3029546;-66
2022/07/29 09:48:42;;;;;;;3.40;1.20;;;;;;;27.95;33.51;99648.69;25180;1316;3071773;-67
2022/07/29 09:51:19;;;;;;;3.10;1.30;;;;;;;28.26;33.48;99646.86;25199;1316;3026800;-63
2022/07/29 09:53:50;;;;;;;7.60;1.70;;;;;;;28.52;32.79;99645.40;25148;1316;3051458;-64
2022/07/29 09:56:19;;;;;;;3.30;1.20;;;;;;;28.58;31.89;99646.20;25087;1315;3026837;-66
2022/07/29 09:58:59;;;;;;;2.80;1.20;;;;;;;28.38;31.68;99642.14;25166;1316;3027802;-62
2022/07/29 10:01:28;;;;;;;10.40;2.00;;;;;;;28.38;32.17;99639.64;25108;1316;3052141;-63
2022/07/29 10:03:57;;;;;;;5.50;1.20;;;;;;;28.58;32.45;99639.35;25012;1315;3026165;-66
2022/07/29 10:06:29;;;;;;;5.10;1.70;;;;;;;28.83;31.85;99638.24;25049;1315;3027885;-66
2022/07/29 10:09:09;;;;;;;4.50;1.40;;;;;;;28.93;31.58;99640.77;25051;1315;3026594;-65
2022/07/29 10:11:41;;;;;;;2.60;1.30;;;;;;;28.74;31.58;99639.58;25128;1316;3049815;-64
2022/07/29 10:14:11;;;;;;;3.70;1.30;;;;;;;28.90;31.37;99637.08;25054;1316;3026804;-64
2022/07/29 10:16:42;;;;;;;4.40;1.20;;;;;;;28.95;30.92;99643.65;24999;1315;3027237;-66
2022/07/29 10:19:11;;;;;;;4.20;1.20;;;;;;;28.90;30.80;99641.37;24995;1319;3027233;-63
2022/07/29 10:21:43;;;;;;;4.50;1.40;;;;;;;28.87;30.66;99641.77;25067;1316;3026725;-63
2022/07/29 10:24:12;;;;;;;4.50;1.30;;;;;;;28.96;30.59;99641.73;25090;1316;3026938;-63
2022/07/29 10:26:42;;;;;;;6.00;1.30;;;;;;;29.18;30.12;99644.48;25145;1316;3026386;-65
2022/07/29 10:29:13;;;;;;;5.10;1.50;;;;;;;29.29;30.29;99637.08;25147;1314;3050511;-66
2022/07/29 10:32:03;;;;;;;3.20;1.40;;;;;;;29.49;30.66;99635.75;25049;1316;3055996;-62
2022/07/29 10:34:57;;;;;;;3.90;1.50;;;;;;;29.48;30.62;99642.20;25098;1315;3051299;-66
2022/07/29 10:37:45;;;;;;;4.30;1.50;;;;;;;29.01;31.22;99639.69;25102;1315;3069382;-66
2022/07/29 10:43:29;;;;;;;7.30;1.90;;;;;;;29.47;31.53;99638.88;25047;1316;3055622;-66
2022/07/29 10:45:59;;;;;;;6.20;1.90;;;;;;;29.72;30.96;99635.92;25116;1316;3055000;-67
2022/07/29 10:48:28;;;;;;;5.60;1.60;;;;;;;29.67;30.71;99642.84;25179;1316;3026594;-62
2022/07/29 10:51:00;;;;;;;6.80;1.50;;;;;;;29.30;29.83;99640.89;25016;1315;3026863;-67
2022/07/29 10:53:47;;;;;;;3.80;1.80;;;;;;;29.01;30.16;99633.98;25175;1315;3052173;-67
2022/07/29 10:56:24;;;;;;;4.60;1.50;;;;;;;29.01;30.55;99627.25;25111;1316;3057232;-63
2022/07/29 10:59:17;;;;;;;8.70;1.60;;;;;;;29.06;30.55;99632.23;25095;1315;3050457;-61
2022/07/29 11:01:47;;;;;;;4.30;1.30;;;;;;;28.61;30.93;99636.44;25093;1315;3055206;-65
2022/07/29 11:04:42;;;;;;;5.50;1.20;;;;;;;28.46;31.33;99635.17;25155;1315;3026052;-67
2022/07/29 11:07:12;;;;;;;3.10;1.50;;;;;;;28.56;31.71;99632.43;25035;1315;3071238;-64
2022/07/29 11:09:42;;;;;;;2.80;1.40;;;;;;;28.72;31.62;99633.64;25045;1316;3026555;-66
2022/07/29 11:12:38;;;;;;;2.60;1.50;;;;;;;28.59;31.96;99626.04;25076;1316;3026398;-64
2022/07/29 11:15:21;;;;;;;5.20;1.80;;;;;;;28.98;32.45;99623.19;25111;1315;3055872;-67
2022/07/29 11:17:53;;;;;;;5.40;2.00;;;;;;;29.54;31.90;99621.54;25169;1316;3056643;-64
2022/07/29 11:20:40;;;;;;;6.20;2.20;;;;;;;29.73;31.25;99618.70;25068;1315;3026621;-66
2022/07/29 11:23:26;;;;;;;5.00;2.00;;;;;;;29.79;30.78;99622.40;25062;1315;3055943;-62
2022/07/29 11:26:21;;;;;;;5.90;2.00;;;;;;;29.56;30.55;99629.60;25045;1316;3051976;-67
2022/07/29 11:28:59;;;;;;;5.60;2.00;;;;;;;29.83;30.95;99617.67;25129;1318;3071458;-66
2022/07/29 11:31:43;;;;;;;3.90;1.70;;;;;;;30.06;30.41;99615.20;25157;1316;3049587;-66
2022/07/29 11:34:21;;;;;;;7.40;1.70;;;;;;;30.20;29.83;99616.23;25123;1316;3054958;-67
2022/07/29 11:37:12;;;;;;;4.70;2.00;;;;;;;30.21;29.51;99615.81;25156;1316;3052356;-66
2022/07/29 11:40:07;;;;;;;8.40;1.40;;;;;;;30.42;29.38;99617.61;25126;1316;3058023;-65
2022/07/29 11:42:37;;;;;;;7.90;1.90;;;;;;;30.37;29.02;99616.41;25121;1316;3052821;-70
2022/07/29 11:45:15;;;;;;;8.20;1.70;;;;;;;30.29;29.20;99622.47;25066;1316;3026430;-65
2022/07/29 11:47:48;;;;;;;3.70;1.50;;;;;;;30.32;29.19;99622.25;25069;1316;3053556;-66